createdAt,value
2019-04-01T00:01:28.400Z,98425.45
2019-04-01T00:05:34.163Z,98424.17
2019-04-01T00:09:39.878Z,98416.87
2019-04-01T00:13:45.591Z,98409.77
2019-04-01T00:17:51.283Z,98413.83
2019-04-01T00:21:57.063Z,98416.44
2019-04-01T00:26:02.770Z,98419.92
2019-04-01T00:30:08.781Z,98423.55
2019-04-01T00:34:14.479Z,98418.66
2019-04-01T00:38:20.174Z,98421.42
2019-04-01T00:42:27.521Z,98414.50
2019-04-01T00:46:33.204Z,98405.23
2019-04-01T00:50:38.903Z,98408.19
2019-04-01T00:54:44.682Z,98415.37
2019-04-01T00:58:50.419Z,98405.58
2019-04-01T01:02:56.133Z,98407.88
2019-04-01T01:07:01.898Z,98408.64
2019-04-01T01:11:07.704Z,98415.94
2019-04-01T01:15:14.541Z,98408.57
2019-04-01T01:19:20.879Z,98414.23
2019-04-01T01:23:26.595Z,98401.47
2019-04-01T01:27:32.298Z,98411.02
2019-04-01T01:31:39.766Z,98404.44
2019-04-01T01:35:45.617Z,98403.50
2019-04-01T01:39:51.318Z,98400.99
2019-04-01T01:43:57.002Z,98411.10
2019-04-01T01:48:02.707Z,98408.72
2019-04-01T01:52:08.410Z,98398.16
2019-04-01T01:56:14.115Z,98404.28
2019-04-01T02:00:20.816Z,98406.61
2019-04-01T02:04:26.482Z,98402.38
2019-04-01T02:08:32.230Z,98398.11
2019-04-01T02:12:39.000Z,98397.78
2019-04-01T02:16:44.705Z,98390.55
2019-04-01T02:20:50.421Z,98392.07
2019-04-01T02:24:56.104Z,98393.98
2019-04-01T02:29:01.805Z,98389.00
2019-04-01T02:33:07.511Z,98394.47
2019-04-01T02:37:13.308Z,98391.85
2019-04-01T02:41:19.110Z,98395.03
2019-04-01T02:45:24.865Z,98389.68
2019-04-01T02:49:30.567Z,98392.60
2019-04-01T02:53:36.382Z,98388.36
2019-04-01T02:57:42.068Z,98384.27
2019-04-01T03:01:47.801Z,98391.83
2019-04-01T03:05:53.485Z,98385.61
2019-04-01T03:09:59.170Z,98388.13
2019-04-01T03:14:05.012Z,98382.22
2019-04-01T03:18:10.811Z,98388.20
2019-04-01T03:22:16.535Z,98392.77
2019-04-01T03:26:22.214Z,98386.72
2019-04-01T03:30:27.918Z,98383.44
2019-04-01T03:34:33.614Z,98387.75
2019-04-01T03:38:39.690Z,98383.73
2019-04-01T03:42:45.392Z,98384.87
2019-04-01T03:46:51.090Z,98386.46
2019-04-01T03:50:56.865Z,98390.13
2019-04-01T03:55:02.559Z,98392.41
2019-04-01T03:59:08.266Z,98396.53
2019-04-01T04:03:14.043Z,98394.28
2019-04-01T04:07:19.730Z,98389.92
2019-04-01T04:11:25.450Z,98396.52
2019-04-01T04:15:31.169Z,98400.09
2019-04-01T04:19:36.871Z,98401.89
2019-04-01T04:23:42.585Z,98405.95
2019-04-01T04:27:48.291Z,98411.03
2019-04-01T04:31:53.990Z,98410.05
2019-04-01T04:36:00.775Z,98410.05
2019-04-01T04:40:08.429Z,98406.04
2019-04-01T04:44:17.250Z,98410.52
2019-04-01T04:48:23.003Z,98415.64
2019-04-01T04:52:28.774Z,98409.25
2019-04-01T05:01:06.188Z,98415.52
2019-04-01T05:05:12.007Z,98419.59
2019-04-01T05:09:17.709Z,98419.23
2019-04-01T05:13:23.410Z,98422.77
2019-04-01T05:17:29.350Z,98426.81
2019-04-01T05:21:36.859Z,98425.63
2019-04-01T05:25:44.930Z,98431.47
2019-04-01T05:29:54.171Z,98436.92
2019-04-01T05:34:02.435Z,98442.38
2019-04-01T05:38:08.377Z,98436.09
2019-04-01T05:42:14.373Z,98434.06
2019-04-01T05:46:20.200Z,98434.46
2019-04-01T05:50:26.040Z,98441.09
2019-04-01T05:54:31.744Z,98443.34
2019-04-01T05:58:37.788Z,98444.99
2019-04-01T06:02:43.778Z,98445.49
2019-04-01T06:06:49.725Z,98445.65
2019-04-01T06:10:55.815Z,98440.17
2019-04-01T06:15:01.581Z,98443.42
2019-04-01T06:19:07.295Z,98448.31
2019-04-01T06:27:19.418Z,98449.97
2019-04-01T06:31:25.193Z,98444.39
2019-04-01T06:35:31.137Z,98456.23
2019-04-01T06:39:36.917Z,98448.53
2019-04-01T06:43:42.802Z,98453.83
2019-04-01T06:47:48.569Z,98448.92
2019-04-01T06:51:54.419Z,98445.80
2019-04-01T06:56:00.267Z,98445.05
2019-04-01T07:00:09.339Z,98440.12
2019-04-01T07:04:16.129Z,98442.25
2019-04-01T07:08:21.970Z,98445.13
2019-04-01T07:12:27.673Z,98441.41
2019-04-01T07:16:33.540Z,98443.04
2019-04-01T07:20:39.394Z,98441.17
2019-04-01T07:24:45.067Z,98438.20
2019-04-01T07:28:50.920Z,98432.65
2019-04-01T07:32:56.684Z,98434.03
2019-04-01T07:37:02.407Z,98430.89
2019-04-01T07:41:08.361Z,98434.41
2019-04-01T07:45:14.322Z,98439.30
2019-04-01T07:49:20.157Z,98433.16
2019-04-01T07:53:25.981Z,98435.46
2019-04-01T07:57:32.774Z,98437.22
2019-04-01T08:01:38.718Z,98433.94
2019-04-01T08:05:44.431Z,98433.80
2019-04-01T08:09:51.264Z,98434.58
2019-04-01T08:13:57.117Z,98426.48
2019-04-01T08:18:02.987Z,98427.30
2019-04-01T08:22:08.855Z,98426.41
2019-04-01T08:26:14.905Z,98422.58
2019-04-01T08:30:20.933Z,98424.22
2019-04-01T08:34:26.655Z,98419.30
2019-04-01T08:38:32.544Z,98416.76
2019-04-01T08:42:38.491Z,98421.00
2019-04-01T08:46:44.582Z,98426.69
2019-04-01T08:51:17.550Z,98418.05
2019-04-01T08:55:23.539Z,98415.76
2019-04-01T08:59:29.671Z,98411.65
2019-04-01T09:03:35.388Z,98411.93
2019-04-01T09:07:41.922Z,98404.85
2019-04-01T09:11:47.825Z,98409.05
2019-04-01T09:15:54.256Z,98397.28
2019-04-01T09:19:59.964Z,98399.52
2019-04-01T09:24:05.817Z,98395.63
2019-04-01T09:28:11.642Z,98397.08
2019-04-01T09:32:17.661Z,98387.72
2019-04-01T09:36:23.439Z,98388.22
2019-04-01T09:40:29.221Z,98381.44
2019-04-01T09:44:37.121Z,98372.80
2019-04-01T09:48:42.451Z,98374.31
2019-04-01T09:52:48.244Z,98369.87
2019-04-01T09:56:53.964Z,98365.50
2019-04-01T10:06:04.641Z,98348.09
2019-04-01T10:10:11.633Z,98343.23
2019-04-01T10:14:17.352Z,98338.47
2019-04-01T10:18:23.162Z,98339.58
2019-04-01T10:22:29.944Z,98333.81
2019-04-01T10:26:35.661Z,98329.36
2019-04-01T10:30:41.420Z,98336.64
2019-04-01T10:34:47.126Z,98317.49
2019-04-01T10:38:52.997Z,98328.53
2019-04-01T10:42:58.779Z,98321.97
2019-04-01T10:47:04.638Z,98316.05
2019-04-01T10:51:10.509Z,98310.19
2019-04-01T10:55:17.307Z,98309.86
2019-04-01T10:59:23.233Z,98303.86
2019-04-01T11:03:29.034Z,98298.32
2019-04-01T11:07:34.909Z,98291.23
2019-04-01T11:11:41.719Z,98285.55
2019-04-01T11:15:48.141Z,98275.03
2019-04-01T11:19:54.677Z,98270.13
2019-04-01T11:24:01.260Z,98266.67
2019-04-01T11:28:08.821Z,98250.85
2019-04-01T11:32:14.616Z,98248.75
2019-04-01T11:36:20.396Z,98251.16
2019-04-01T11:40:26.256Z,98241.95
2019-04-01T11:44:32.026Z,98233.86
2019-04-01T11:48:37.819Z,98226.99
2019-04-01T11:52:43.540Z,98220.34
2019-04-01T11:56:49.308Z,98212.75
2019-04-01T12:00:55.163Z,98211.43
2019-04-01T12:05:00.843Z,98211.88
2019-04-01T12:09:07.608Z,98199.47
2019-04-01T12:13:19.503Z,98189.52
2019-04-01T12:17:25.342Z,98183.73
2019-04-01T12:21:31.298Z,98174.07
2019-04-01T12:25:37.064Z,98166.59
2019-04-01T12:29:42.773Z,98160.36
2019-04-01T12:33:48.553Z,98157.45
2019-04-01T12:37:54.255Z,98150.40
2019-04-01T12:42:00.091Z,98153.52
2019-04-01T12:46:06.156Z,98136.73
2019-04-01T12:50:18.169Z,98123.81
2019-04-01T12:54:23.925Z,98135.30
2019-04-01T12:58:29.674Z,98129.84
2019-04-01T13:02:35.384Z,98124.88
2019-04-01T13:06:41.098Z,98118.13
2019-04-01T13:10:46.849Z,98117.76
2019-04-01T13:14:55.433Z,98098.42
2019-04-01T13:18:59.951Z,98099.17
2019-04-01T13:23:17.795Z,98102.84
2019-04-01T13:27:23.531Z,98079.98
2019-04-01T13:31:29.324Z,98077.73
2019-04-01T13:35:35.154Z,98085.14
2019-04-01T13:39:40.864Z,98078.08
2019-04-01T13:43:46.561Z,98085.08
2019-04-01T13:47:52.263Z,98068.98
2019-04-01T13:51:59.068Z,98060.38
2019-04-01T13:56:16.922Z,98060.13
2019-04-01T14:00:26.795Z,98055.70
2019-04-01T14:04:30.187Z,98051.61
2019-04-01T14:08:35.900Z,98039.25
2019-04-01T14:12:42.692Z,98036.48
2019-04-01T14:16:48.545Z,98031.33
2019-04-01T14:20:54.263Z,98021.08
2019-04-01T14:24:59.970Z,98022.92
2019-04-01T14:29:17.659Z,98018.44
2019-04-01T14:33:23.361Z,98015.09
2019-04-01T14:37:30.110Z,98010.06
2019-04-01T14:41:36.054Z,98012.29
2019-04-01T14:45:41.774Z,98003.53
2019-04-01T14:49:47.502Z,97997.44
2019-04-01T14:53:53.189Z,98000.50
2019-04-01T14:58:19.768Z,98003.44
2019-04-01T15:02:25.531Z,98002.41
2019-04-01T15:06:31.386Z,97990.84
2019-04-01T15:10:40.769Z,97994.80
2019-04-01T15:14:44.525Z,97993.22
2019-04-01T15:18:50.255Z,97995.27
2019-04-01T15:22:56.354Z,97995.95
2019-04-01T15:27:02.138Z,97988.27
2019-04-01T15:32:17.207Z,97989.83
2019-04-01T15:53:18.964Z,97961.70
2019-04-01T16:10:15.760Z,97950.89
2019-04-01T16:26:16.011Z,97935.33
2019-04-01T16:31:15.469Z,97939.41
2019-04-01T16:41:17.040Z,97939.35
2019-04-01T16:52:15.650Z,97938.95
2019-04-01T17:03:16.179Z,97937.03
2019-04-01T17:08:16.688Z,97940.38
2019-04-01T17:19:16.228Z,97939.34
2019-04-01T17:40:17.189Z,97940.09
2019-04-01T17:44:22.927Z,97937.13
2019-04-01T17:48:28.839Z,97948.95
2019-04-01T17:52:34.516Z,97952.68
2019-04-01T17:56:40.254Z,97953.03
2019-04-01T18:00:47.673Z,97952.41
2019-04-01T18:04:53.451Z,97948.97
2019-04-01T18:08:59.268Z,97949.13
2019-04-01T18:13:05.203Z,97950.00
2019-04-01T18:17:11.203Z,97953.98
2019-04-01T18:21:17.878Z,97961.13
2019-04-01T18:25:24.725Z,97960.88
2019-04-01T18:29:30.447Z,97955.92
2019-04-01T18:33:36.248Z,97964.19
2019-04-01T18:37:42.023Z,97962.41
2019-04-01T18:41:47.816Z,97969.39
2019-04-01T18:45:53.841Z,97969.61
2019-04-01T18:49:59.638Z,97970.94
2019-04-01T18:54:05.604Z,97969.77
2019-04-01T18:58:11.593Z,97968.72
2019-04-01T19:02:17.288Z,97982.33
2019-04-01T19:06:23.006Z,97972.91
2019-04-01T19:10:28.822Z,97974.56
2019-04-01T19:14:34.656Z,97985.77
2019-04-01T19:18:41.883Z,97986.72
2019-04-01T19:22:47.752Z,97983.50
2019-04-01T19:26:53.523Z,97990.22
2019-04-01T19:30:59.387Z,97990.94
2019-04-01T19:35:09.522Z,97991.42
2019-04-01T19:39:15.439Z,97991.06
2019-04-01T19:43:21.156Z,97989.77
2019-04-01T19:48:18.081Z,97993.20
2019-04-01T20:03:17.158Z,97995.78
2019-04-01T20:18:19.767Z,97989.89
2019-04-01T20:33:57.339Z,97984.19
2019-04-01T20:43:19.287Z,97976.37
2019-04-01T20:48:16.286Z,97976.22
2019-04-01T20:52:22.014Z,97973.42
2019-04-01T20:57:21.680Z,97972.19
2019-04-01T21:01:26.001Z,97970.91
2019-04-01T21:06:16.477Z,97967.23
2019-04-01T21:14:52.216Z,97957.30
2019-04-01T21:18:57.925Z,97962.27
2019-04-01T21:23:03.624Z,97960.44
2019-04-01T21:27:09.341Z,97959.64
2019-04-01T21:31:15.028Z,97955.81
2019-04-01T21:35:21.785Z,97957.66
2019-04-01T21:39:27.481Z,97967.07
2019-04-01T21:43:33.187Z,97962.11
2019-04-01T21:47:38.897Z,97963.20
2019-04-01T21:51:44.755Z,97951.51
2019-04-01T21:55:50.453Z,97953.09
2019-04-01T21:59:56.162Z,97958.72
2019-04-01T22:04:01.871Z,97948.20
2019-04-01T22:08:07.624Z,97948.42
2019-04-01T22:12:13.349Z,97951.63
2019-04-01T22:16:19.154Z,97948.56
2019-04-01T22:20:25.144Z,97937.41
2019-04-01T22:24:30.842Z,97938.50
2019-04-01T22:28:38.614Z,97934.27
2019-04-01T22:32:44.343Z,97930.13
2019-04-01T22:36:50.046Z,97927.99
2019-04-01T22:40:55.761Z,97930.13
2019-04-01T22:45:01.504Z,97927.84
2019-04-01T22:49:07.277Z,97925.20
2019-04-01T22:53:13.053Z,97922.56
2019-04-01T22:57:18.811Z,97920.70
2019-04-01T23:01:24.621Z,97919.48
2019-04-01T23:05:30.308Z,97915.27
2019-04-01T23:09:36.343Z,97905.42
2019-04-01T23:13:43.694Z,97909.30
2019-04-01T23:17:49.435Z,97902.22
2019-04-01T23:21:55.138Z,97905.27
2019-04-01T23:26:00.827Z,97902.62
2019-04-01T23:30:10.874Z,97896.78
2019-04-01T23:34:16.589Z,97893.72
2019-04-01T23:38:22.296Z,97894.48
2019-04-01T23:42:28.213Z,97895.52
2019-04-01T23:46:34.165Z,97890.27
2019-04-01T23:50:39.892Z,97886.23
2019-04-01T23:54:45.583Z,97890.09
2019-04-01T23:58:51.629Z,97884.17
